Data for 07/20/2014

Time Sea-Level Adjusted Pressure Absolute Pressure Temperature Relative Humidity Dew Point   
(mb) (inHg) (mb) (inHg) (C) (F) (%) (C) (F)
00:05 1016 30 845 24.95 16.2 61.2 51 6.2 43.2
00:10 1016 30 845 24.95 16.4 61.5 51 6.3 43.3
00:15 1016 30 845 24.95 16.3 61.3 51 6.4 43.4
00:20 1016 30 845 24.95 16.2 61.1 51 6.2 43.1
00:25 1016 30 845 24.95 16.1 60.9 52 6.3 43.3
00:30 1016 30 845 24.95 16 60.9 51 6 42.8
00:35 1016 30 845 24.95 16.1 61 50 5.9 42.6
00:40 1016 30 845 24.95 16.3 61.3 50 5.9 42.6
00:45 1016 30 845 24.95 16.2 61.1 51 6.1 42.9
00:50 1016 30 845 24.95 16.1 60.9 49 5.6 42
00:55 1016 30 845 24.95 16.5 61.7 47 5.2 41.4
01:00 1016 30 845 24.95 16.8 62.3 46 5.3 41.6
01:05 1016 30 845 24.95 17 62.6 47 5.8 42.5
01:10 1016 30 845 24.95 17.2 63 45 5.3 41.6
01:15 1016 30 845 24.95 17 62.6 45 5.2 41.4
01:20 1016 30 845 24.95 16.9 62.4 46 5.3 41.5
01:25 1016 30 845 24.95 16.9 62.4 45 4.8 40.7
01:30 1016 30 845 24.95 17 62.5 45 5.2 41.3
01:35 1016 30 845 24.95 17 62.5 45 5.2 41.4
01:40 1016 30 845 24.95 17 62.6 44 4.8 40.7
01:45 1016 30 845 24.95 16.9 62.4 45 4.9 40.9
01:50 1016 30 845 24.95 16.7 62.1 46 5 41.1
01:55 1016 30 845 24.95 16.7 62.1 45 4.8 40.7
02:00 1016 30 845 24.95 16.8 62.3 45 4.8 40.7
02:05 1016 30 845 24.95 16.8 62.3 45 4.8 40.7
02:10 1016 30 845 24.95 16.8 62.2 46 5.2 41.4
02:15 1016 30 845 24.95 16.8 62.2 44 4.6 40.3
02:20 1016 30 845 24.95 17 62.5 44 4.8 40.6
02:25 1016 30 845 24.95 16.9 62.4 45 4.9 40.7
02:30 1016 30 845 24.95 16.7 62 45 4.8 40.7
02:35 1016 30 845 24.95 16.7 62 44 4.6 40.2
02:40 1016 30 845 24.95 16.9 62.4 44 4.6 40.2
02:45 1016 30 845 24.95 16.9 62.3 44 4.7 40.4
02:50 1016 30 845 24.95 16.8 62.3 44 4.6 40.2
02:55 1016 30 845 24.95 16.5 61.6 47 5.3 41.6
03:00 1016 30 845 24.95 15.9 60.5 48 5.1 41.1
03:05 1016 30 845 24.95 15.7 60.2 50 5.3 41.6
03:10 1016 30 845 24.95 15.4 59.7 50 5.3 41.5
03:15 1016 30 845 24.95 15.6 60.1 49 4.9 40.9
03:20 1016 30 845 24.95 15.6 60.1 50 5.4 41.7
03:25 1016 30 845 24.95 15.4 59.7 51 5.3 41.6
03:30 1016 30 845 24.95 15.2 59.4 51 5.3 41.6
03:35 1016 30 845 24.95 15 59 52 5.2 41.4
03:40 1016 30 845 24.95 15.1 59.2 50 4.8 40.6
03:45 1016 30 846 24.98 15.3 59.5 49 4.8 40.6
03:50 1016 30 846 24.98 15.7 60.2 47 4.6 40.3
03:55 1016 30 846 24.98 16.1 61 48 5.3 41.6
04:00 1016 30 846 24.98 16.1 61 48 5.2 41.4
04:05 1016 30 846 24.98 15.7 60.3 48 4.9 40.8
04:10 1016 30 846 24.98 15.6 60.1 48 4.8 40.7
04:15 1016 30 846 24.98 15.5 59.9 48 4.8 40.6
04:20 1016 30 846 24.98 15.5 59.9 49 4.9 40.9
04:25 1016 30 846 24.98 15.4 59.6 49 4.8 40.6
04:30 1016 30 846 24.98 15.3 59.6 53 5.9 42.6
04:35 1016 30 846 24.98 15.1 59.2 51 5.1 41.1
04:40 1016 30 846 24.98 14.9 58.7 52 5.1 41.1
04:45 1016 30 846 24.98 14.9 58.9 51 4.9 40.9
04:50 1016 30 846 24.98 14.9 58.7 52 5.2 41.3
04:55 1016 30 846 24.98 14.3 57.8 54 5.1 41.1
05:00 1016 30 846 24.98 14.2 57.6 55 5.3 41.6
05:05 1017 30.03 846 24.98 13.8 56.9 56 5.3 41.5
05:10 1017 30.03 846 24.98 13.8 56.8 55 5.1 41.2
05:15 1017 30.03 846 24.98 14 57.2 54 4.8 40.7
05:20 1017 30.03 846 24.98 14.6 58.2 51 4.7 40.5
05:25 1016 30 846 24.98 15.1 59.1 49 4.4 40
05:30 1016 30 846 24.98 15.3 59.6 49 4.7 40.4
05:35 1017 30.03 846 24.98 15.5 59.8 49 5 41
05:40 1017 30.03 846 24.98 15.4 59.6 49 4.7 40.4
05:45 1017 30.03 846 24.98 15.6 60 50 5.2 41.4
05:50 1017 30.03 846 24.98 15.2 59.3 51 5.2 41.3
05:55 1017 30.03 846 24.98 15.4 59.7 50 5.2 41.3
06:00 1017 30.03 846 24.98 15.4 59.7 50 5.1 41.1
06:05 1017 30.03 846 24.98 15.7 60.2 48 4.7 40.4
06:10 1017 30.03 846 24.98 16 60.8 49 5.3 41.5
06:15 1017 30.03 846 24.98 16.1 60.9 51 5.9 42.6
06:20 1017 30.03 846 24.98 16.2 61.1 49 5.4 41.8
06:25 1017 30.03 846 24.98 16.4 61.4 49 5.6 42.1
06:30 1017 30.03 846 24.98 16.5 61.8 49 6 42.8
06:35 1017 30.03 846 24.98 17.2 62.9 45 5.2 41.4
06:40 1017 30.03 846 24.98 18 64.4 46 6.3 43.4
06:45 1017 30.03 846 24.98 17.9 64.2 45 5.8 42.4
06:50 1017 30.03 846 24.98 17.7 63.8 47 6.4 43.6
06:55 1017 30.03 846 24.98 18.1 64.6 46 6.4 43.5
07:00 1017 30.03 846 24.98 18.6 65.5 48 7.6 45.6
07:05 1017 30.03 846 24.98 19.2 66.5 44 6.9 44.3
07:10 1017 30.03 846 24.98 19.5 67.1 42 6.5 43.7
07:15 1017 30.03 846 24.98 19.6 67.3 45 7.4 45.3
07:20 1017 30.03 846 24.98 19.8 67.6 44 7.4 45.2
07:25 1017 30.03 846 24.98 19.9 67.8 44 7.6 45.6
07:30 1017 30.03 846 24.98 20.3 68.5 42 7.3 45.1
07:35 1017 30.03 846 24.98 20.9 69.6 40 7.1 44.7
07:40 1017 30.03 846 24.98 21.5 70.7 37 6.5 43.7
07:45 1017 30.03 846 24.98 21.1 70 38 6.2 43.2
07:50 1017 30.03 846 24.98 21.1 70 37 6.1 43
07:55 1017 30.03 846 24.98 21.6 70.9 36 6 42.7
08:00 1017 30.03 846 24.98 22.2 72 36 6.6 43.8
08:05 1017 30.03 846 24.98 22.4 72.4 35 6.6 43.9
08:10 1017 30.03 846 24.98 23.1 73.6 34 6.5 43.8
08:15 1017 30.03 846 24.98 23.8 74.8 33 6.9 44.4
08:20 1017 30.03 846 24.98 23.8 74.8 32 6.4 43.5
08:25 1017 30.03 846 24.98 23.6 74.5 33 6.4 43.6
08:30 1017 30.03 846 24.98 24.1 75.3 30 5.7 42.2
08:35 1017 30.03 846 24.98 24.5 76 32 6.9 44.5
08:40 1017 30.03 846 24.98 23.6 74.4 33 6.6 43.9
08:45 1017 30.03 846 24.98 24.3 75.7 32 6.6 43.9
08:50 1017 30.03 846 24.98 24 75.1 32 6.6 43.8
08:55 1017 30.03 846 24.98 23 73.5 34 6.4 43.5
09:00 1017 30.03 846 24.98 23.1 73.6 30 5 40.9
09:05 1017 30.03 846 24.98 24.2 75.5 30 5.7 42.2
09:10 1017 30.03 846 24.98 24.7 76.4 29 5.5 41.8
09:15 1017 30.03 846 24.98 25 77.1 28 5.4 41.8
09:20 1016 30 846 24.98 25.2 77.4 26 4.6 40.3
09:25 1016 30 846 24.98 25.9 78.6 26 5.2 41.4
09:30 1016 30 846 24.98 25.3 77.6 26 4.8 40.6
09:35 1016 30 846 24.98 26.1 79 26 5.3 41.5
09:40 1016 30 846 24.98 26.2 79.1 24 4.5 40
09:45 1016 30 845 24.95 26.9 80.4 23 4.4 39.9
09:50 1016 30 845 24.95 26.6 79.8 24 4.4 40
09:55 1016 30 845 24.95 26.5 79.7 25 5.1 41.1
10:00 1016 30 845 24.95 26.8 80.2 24 5.1 41.1
10:05 1016 30 845 24.95 26.6 79.9 25 5.1 41.2
10:10 1016 30 845 24.95 26.5 79.6 26 5.9 42.5
10:15 1016 30 845 24.95 25.8 78.5 24 4.2 39.6
10:20 1016 30 845 24.95 26.9 80.4 23 4.3 39.8
10:25 1016 30 845 24.95 26.9 80.5 24 4.8 40.6
10:30 1016 30 845 24.95 27 80.6 25 5.8 42.4
10:35 1016 30 845 24.95 26.5 79.6 23 4.1 39.4
10:40 1016 30 845 24.95 26.7 80 22 3.8 38.8
10:45 1016 30 845 24.95 27.3 81.2 23 4.6 40.2
10:50 1016 30 845 24.95 28.2 82.7 21 4.1 39.4
10:55 1016 30 845 24.95 28.7 83.6 20 3.6 38.4
11:00 1016 30 845 24.95 28.6 83.5 19 3 37.5
11:05 1016 30 845 24.95 29.3 84.8 19 3.6 38.5
11:10 1016 30 845 24.95 29.4 84.8 14 -0.6 31
11:15 1016 30 845 24.95 29.2 84.6 13 -1.6 29.1
11:20 1016 30 845 24.95 29.3 84.7 13 -1.9 28.6
11:25 1015 29.97 845 24.95 28.9 84 12 -3.3 26.1
11:30 1015 29.97 845 24.95 28.8 83.8 13 -2.3 27.9
11:35 1015 29.97 845 24.95 29 84.2 13 -2.2 28.1
11:40 1015 29.97 845 24.95 29.2 84.6 12 -2.4 27.7
11:45 1015 29.97 844 24.92 29.3 84.7 12 -2.5 27.5
11:50 1015 29.97 844 24.92 29.3 84.7 13 -1.9 28.5
11:55 1015 29.97 844 24.92 29.2 84.6 11 -3.6 25.4
12:00 1015 29.97 844 24.92 29.1 84.4 11 -4.2 24.4
12:05 1015 29.97 844 24.92 29 84.2 11 -4.4 24
12:10 1015 29.97 844 24.92 29.2 84.5 10 -4.7 23.6
12:15 1015 29.97 844 24.92 29.7 85.5 10 -4.8 23.4
12:20 1015 29.97 844 24.92 29.4 85 11 -3.9 24.9
12:25 1015 29.97 844 24.92 29.5 85.2 11 -3.5 25.7
12:30 1015 29.97 844 24.92 29.6 85.3 12 -2.8 27
12:35 1015 29.97 844 24.92 29.8 85.6 11 -3.8 25.1
12:40 1015 29.97 844 24.92 29.8 85.7 11 -3.2 26.2
12:45 1015 29.97 844 24.92 30.2 86.3 11 -3.1 26.4
12:50 1015 29.97 844 24.92 30.1 86.3 11 -3.8 25.2
12:55 1015 29.97 844 24.92 29.9 85.9 11 -3.5 25.6
13:00 1015 29.97 844 24.92 30.6 87 11 -3 26.7
13:05 1015 29.97 844 24.92 30.7 87.2 10 -4 24.8
13:10 1015 29.97 844 24.92 30.3 86.5 11 -2.8 26.9
13:15 1015 29.97 844 24.92 30.4 86.7 11 -3.6 25.4
13:20 1015 29.97 844 24.92 30.6 87 11 -3.4 25.8
13:25 1015 29.97 844 24.92 30.7 87.3 11 -3.4 25.9
13:30 1015 29.97 844 24.92 30.9 87.6 10 -3.8 25.2
13:35 1015 29.97 844 24.92 31.3 88.3 11 -2.9 26.8
13:40 1015 29.97 844 24.92 31 87.9 10 -3.2 26.2
13:45 1015 29.97 844 24.92 31.3 88.4 11 -2.9 26.9
13:50 1014 29.94 844 24.92 31.4 88.5 10 -4.1 24.6
13:55 1014 29.94 844 24.92 31.3 88.3 10 -3.3 26.1
14:00 1014 29.94 844 24.92 31.3 88.4 10 -4.1 24.7
14:05 1014 29.94 843 24.89 31.2 88.2 10 -3.9 24.9
14:10 1014 29.94 844 24.92 31 87.9 10 -3.9 25
14:15 1014 29.94 843 24.89 31.2 88.2 10 -4 24.7
14:20 1014 29.94 843 24.89 31.7 89.1 9 -4.5 23.9
14:25 1014 29.94 843 24.89 31.7 89 10 -3.9 25
14:30 1014 29.94 843 24.89 31.7 89 10 -3.6 25.5
14:35 1014 29.94 843 24.89 31.4 88.6 10 -4 24.8
14:40 1014 29.94 843 24.89 31.7 89 10 -3.7 25.4
14:45 1014 29.94 843 24.89 31.9 89.5 11 -2.4 27.6
14:50 1014 29.94 843 24.89 32 89.6 9 -3.8 25.2
14:55 1014 29.94 843 24.89 31.6 88.9 10 -3.6 25.5
15:00 1014 29.94 843 24.89 31.9 89.4 10 -3.4 25.9
15:05 1014 29.94 843 24.89 31.9 89.5 10 -3.7 25.3
15:10 1014 29.94 843 24.89 32 89.6 9 -4.2 24.5
15:15 1014 29.94 843 24.89 31.7 89.1 10 -3.6 25.5
15:20 1014 29.94 843 24.89 31.7 89.1 10 -3.8 25.2
15:25 1014 29.94 843 24.89 31.8 89.3 10 -3.4 26
15:30 1014 29.94 843 24.89 32.1 89.7 10 -3.6 25.5
15:35 1014 29.94 843 24.89 32 89.5 10 -3.7 25.4
15:40 1013 29.91 843 24.89 31.7 89 10 -3.1 26.3
15:45 1013 29.91 843 24.89 31.7 89 10 -3.1 26.3
15:50 1013 29.91 843 24.89 31.8 89.2 9 -5 23.1
15:55 1013 29.91 843 24.89 31.8 89.2 10 -3.7 25.3
16:00 1013 29.91 842 24.86 31.9 89.4 10 -3.4 25.8
16:05 1013 29.91 842 24.86 31.9 89.4 10 -3.5 25.6
16:10 1013 29.91 842 24.86 31.9 89.3 10 -2.8 26.9
16:15 1013 29.91 842 24.86 32.1 89.7 10 -3.2 26.3
16:20 1013 29.91 842 24.86 31.9 89.3 10 -3.3 26.1
16:25 1013 29.91 842 24.86 31.8 89.2 10 -3.6 25.5
16:30 1013 29.91 842 24.86 31.7 89 10 -3.3 26.1
16:35 1013 29.91 842 24.86 31.9 89.4 9 -4.1 24.7
16:40 1013 29.91 842 24.86 32 89.6 11 -2.3 27.9
16:45 1013 29.91 842 24.86 32.4 90.3 11 -1.4 29.5
16:50 1013 29.91 842 24.86 32.5 90.4 10 -2.3 27.9
16:55 1013 29.91 842 24.86 32.2 90 10 -2.2 28
17:00 1013 29.91 842 24.86 31.7 89 10 -2.8 27
17:05 1013 29.91 842 24.86 31.7 89 11 -2.5 27.5
17:10 1013 29.91 842 24.86 31.8 89.2 11 -2.2 28
17:15 1013 29.91 842 24.86 32 89.5 11 -1.7 28.9
17:20 1013 29.91 842 24.86 31.7 89.1 12 -1.1 30
17:25 1013 29.91 842 24.86 31.8 89.2 12 -1.2 29.8
17:30 1013 29.91 842 24.86 31.7 89.1 11 -2 28.3
17:35 1013 29.91 842 24.86 31.9 89.4 11 -1.8 28.8
17:40 1013 29.91 842 24.86 31.7 89.1 11 -1.5 29.4
17:45 1013 29.91 842 24.86 31.3 88.3 11 -1.8 28.8
17:50 1013 29.91 842 24.86 31.3 88.3 11 -1.7 28.9
17:55 1013 29.91 842 24.86 31.5 88.8 11 -1.7 28.9
18:00 1013 29.91 842 24.86 31.5 88.6 12 -1.4 29.5
18:05 1013 29.91 842 24.86 31.1 88.1 12 -1.7 28.9
18:10 1013 29.91 842 24.86 30.8 87.4 12 -1.9 28.5
18:15 1013 29.91 842 24.86 30.7 87.2 12 -2.2 28.1
18:20 1013 29.91 842 24.86 30.3 86.6 12 -1.9 28.5
18:25 1013 29.91 842 24.86 30 85.9 11 -2.8 26.9
18:30 1013 29.91 842 24.86 29.9 85.9 11 -3.4 25.9
18:35 1013 29.91 842 24.86 30 86 11 -3.2 26.2
18:40 1013 29.91 842 24.86 30 86 11 -3.4 25.8
18:45 1013 29.91 842 24.86 29.9 85.8 11 -3.4 25.9
18:50 1013 29.91 842 24.86 29.8 85.6 11 -3.8 25.1
18:55 1013 29.91 842 24.86 29.7 85.4 12 -2.8 26.9
19:00 1013 29.91 842 24.86 29.5 85.2 12 -2.5 27.5
19:05 1013 29.91 842 24.86 29.4 84.9 10 -4.6 23.8
19:10 1013 29.91 842 24.86 29.4 84.9 12 -2.3 27.8
19:15 1013 29.91 842 24.86 29.5 85.1 11 -4 24.8
19:20 1013 29.91 842 24.86 29.6 85.3 12 -2.7 27.1
19:25 1013 29.91 842 24.86 29.4 85 12 -2.7 27.1
19:30 1013 29.91 842 24.86 29.2 84.6 12 -2.7 27.1
19:35 1013 29.91 842 24.86 29 84.2 17 1.5 34.6
19:40 1013 29.91 842 24.86 28.1 82.6 22 4.5 40
19:45 1013 29.91 842 24.86 27.9 82.2 20 2.9 37.1
19:50 1013 29.91 842 24.86 27.3 81.2 22 4.1 39.4
19:55 1013 29.91 842 24.86 26.8 80.2 25 5.1 41.2
20:00 1013 29.91 842 24.86 26.1 79 24 4.5 40
20:05 1013 29.91 842 24.86 25.6 78.2 22 2.8 37.1
20:10 1013 29.91 842 24.86 25.4 77.7 22 2.2 35.9
20:15 1013 29.91 842 24.86 25.7 78.2 20 1.5 34.7
20:20 1013 29.91 843 24.89 25.4 77.8 23 3 37.5
20:25 1013 29.91 843 24.89 25 77 23 2.5 36.5
20:30 1013 29.91 843 24.89 24.8 76.6 25 3.8 38.8
20:35 1013 29.91 843 24.89 24.3 75.7 25 3.1 37.5
20:40 1013 29.91 843 24.89 24 75.2 23 1.6 34.8
20:45 1013 29.91 843 24.89 24.2 75.6 24 2.8 37.1
20:50 1013 29.91 843 24.89 23.9 75 26 3.2 37.7
20:55 1013 29.91 843 24.89 23.6 74.4 25 2.6 36.6
21:00 1013 29.91 843 24.89 23.8 74.8 22 1.3 34.3
21:05 1013 29.91 843 24.89 24.3 75.7 25 3.1 37.6
21:10 1014 29.94 843 24.89 23.7 74.6 26 3.4 38.1
21:15 1014 29.94 843 24.89 23.7 74.6 23 1.7 35
21:20 1014 29.94 843 24.89 23.9 75.1 23 1.8 35.2
21:25 1014 29.94 843 24.89 24 75.2 24 2.2 35.9
21:30 1014 29.94 843 24.89 24 75.1 25 2.8 37
21:35 1014 29.94 843 24.89 23.5 74.2 26 2.9 37.2
21:40 1014 29.94 843 24.89 23.3 74 27 3.7 38.7
21:45 1014 29.94 843 24.89 23.6 74.5 27 3.5 38.4
21:50 1014 29.94 843 24.89 23.9 75 27 4.2 39.6
21:55 1014 29.94 843 24.89 24 75.2 27 4.3 39.8
22:00 1014 29.94 843 24.89 24.9 76.8 27 5.1 41.1
22:05 1014 29.94 843 24.89 25.2 77.3 23 2.9 37.2
22:10 1014 29.94 843 24.89 25.3 77.6 22 2.4 36.3
22:15 1014 29.94 843 24.89 25.5 77.9 22 2.7 36.9
22:20 1013 29.91 843 24.89 25.5 77.8 23 2.9 37.1
22:25 1013 29.91 843 24.89 25.1 77.2 22 2.4 36.2
22:30 1013 29.91 843 24.89 25.2 77.3 23 2.6 36.7
22:35 1013 29.91 843 24.89 24.7 76.5 23 2.7 36.8
22:40 1013 29.91 843 24.89 24.5 76 24 3.1 37.5
22:45 1013 29.91 843 24.89 24.4 75.9 25 3.5 38.3
22:50 1013 29.91 843 24.89 24 75.2 25 3.2 37.8
22:55 1013 29.91 843 24.89 23.6 74.5 25 2.9 37.2
23:00 1014 29.94 843 24.89 23.2 73.8 26 2.8 37.1
23:05 1014 29.94 843 24.89 22.9 73.2 27 3.2 37.7
23:10 1014 29.94 843 24.89 22.5 72.5 28 3.2 37.7
23:15 1014 29.94 843 24.89 22.4 72.4 27 2.8 37.1
23:20 1014 29.94 843 24.89 22.4 72.4 26 2.4 36.3
23:25 1014 29.94 843 24.89 22.5 72.6 29 3.7 38.6
23:30 1014 29.94 843 24.89 22.2 72 27 2.6 36.8
23:35 1014 29.94 843 24.89 22.4 72.3 27 2.4 36.4
23:40 1014 29.94 843 24.89 22.6 72.6 26 2.4 36.2
23:45 1014 29.94 843 24.89 22.4 72.3 27 2.6 36.7
23:50 1014 29.94 843 24.89 21.9 71.4 28 2.7 36.8
23:55 1014 29.94 843 24.89 21.4 70.5 29 2.6 36.6
24:00 1014 29.94 843 24.89 21.1 70 28 2.2 36